GOOY/DKR METAR and TAF weather

Enter ICAO airport designator
Station Type Date Time Source
GOOY METAR 2019/05/20 10:00 UTC NOAA

GOOY 201000Z 34006KT 9999 FEW010 23/20 Q1014


Station Type Date Time Source
GOOY Decoded METAR 2019/05/20 10:00 UTC NOAA

Dakar / Yoff, Senegal (GOOY) 14-44N 017-30W 24M
May 20, 2019 - 06:00 AM EDT / 2019.05.20 1000 UTC
Wind: from the NNW (340 degrees) at 7 MPH (6 KT):0
Visibility: greater than 7 mile(s):0
Sky conditions: mostly clear
Temperature: 73 F (23 C)
Dew Point: 68 F (20 C)
Relative Humidity: 83%
Pressure (altimeter): 29.94 in. Hg (1014 hPa)
ob: GOOY 201000Z 34006KT 9999 FEW010 23/20 Q1014
cycle: 10

Station Type Date Time Source
GOOY TAF 2019/05/20 06:30 UTC NOAA

TAF GOOY 200530Z 2006/2112 35012KT CAVOK

Example: see airport list